Time;durP1;ratioP1;P1;durP2;ratioP2;P2;SDS_P1;SDS_P2;PMS_P1;PMS_P2;Temp;Humidity;BMP_temperature;BMP_pressure;BME280_temperature;BME280_humidity;BME280_pressure;Samples;Min_cycle;Max_cycle;Signal;HPM_P1;HPM_P2
2023/04/26 00:02:26;;;;;;;6.03;1.73;;;21.60;38.50;;;;;;20835562;28;20060;-59
2023/04/26 00:12:28;;;;;;;3.35;1.42;;;21.60;38.80;;;;;;20834491;28;20499;-59
2023/04/26 00:22:29;;;;;;;4.07;1.55;;;21.40;39.30;;;;;;20832373;28;20053;-59
2023/04/26 00:32:30;;;;;;;4.60;1.52;;;21.30;39.70;;;;;;20832320;28;20057;-58
2023/04/26 00:42:32;;;;;;;3.25;1.42;;;21.30;39.70;;;;;;20832614;28;20475;-59
2023/04/26 00:52:34;;;;;;;5.35;2.13;;;21.30;40.00;;;;;;20831519;28;20076;-59
2023/04/26 01:02:36;;;;;;;2.78;1.35;;;21.20;40.40;;;;;;20831472;28;20108;-60
2023/04/26 01:12:38;;;;;;;3.17;1.70;;;21.20;40.40;;;;;;20831317;28;20407;-58
2023/04/26 01:22:40;;;;;;;3.50;1.60;;;21.00;41.10;;;;;;20829433;28;20418;-59
2023/04/26 01:32:42;;;;;;;3.00;1.95;;;20.70;41.70;;;;;;20828959;28;20053;-58
2023/04/26 01:42:44;;;;;;;2.92;1.60;;;20.70;41.90;;;;;;20829411;28;20072;-60
2023/04/26 01:52:45;;;;;;;2.42;1.30;;;20.80;42.00;;;;;;20826822;28;20054;-59
2023/04/26 02:02:46;;;;;;;3.88;1.98;;;20.70;42.50;;;;;;20827516;28;20052;-58
2023/04/26 02:12:48;;;;;;;5.43;2.78;;;20.60;43.10;;;;;;20840647;28;20045;-58
2023/04/26 02:22:49;;;;;;;3.72;2.17;;;20.30;44.20;;;;;;20841635;28;20045;-59
2023/04/26 02:32:53;;;;;;;4.30;1.77;;;20.20;44.80;;;;;;20842591;28;20107;-58
2023/04/26 02:42:55;;;;;;;4.35;1.80;;;19.90;45.70;;;;;;20839347;28;20081;-58
2023/04/26 02:52:56;;;;;;;3.33;1.83;;;19.70;46.30;;;;;;20840128;28;20487;-57
2023/04/26 03:02:58;;;;;;;2.72;1.33;;;19.30;47.10;;;;;;20838605;28;20053;-58
2023/04/26 03:12:59;;;;;;;5.25;1.40;;;19.20;47.00;;;;;;20839322;28;20125;-58
2023/04/26 03:23:01;;;;;;;2.65;1.40;;;19.00;47.50;;;;;;20836996;28;20140;-57
2023/04/26 03:33:02;;;;;;;5.75;1.58;;;18.80;48.30;;;;;;20838253;28;20111;-58
2023/04/26 03:43:03;;;;;;;5.00;2.28;;;18.70;48.70;;;;;;20837008;28;20045;-58
2023/04/26 03:53:05;;;;;;;4.78;1.50;;;18.50;49.40;;;;;;20836598;28;20502;-58
2023/04/26 04:03:07;;;;;;;5.32;1.58;;;18.30;49.30;;;;;;20835473;28;20116;-58
2023/04/26 04:13:08;;;;;;;5.85;1.77;;;18.10;49.60;;;;;;20833716;28;20053;-60
2023/04/26 04:23:09;;;;;;;2.95;1.23;;;18.00;49.80;;;;;;20832586;28;20111;-58
2023/04/26 04:33:11;;;;;;;3.03;1.30;;;17.90;49.90;;;;;;20832953;28;20549;-58
2023/04/26 04:43:13;;;;;;;4.47;1.75;;;17.80;50.00;;;;;;20832674;28;20407;-59
2023/04/26 04:53:15;;;;;;;2.47;1.30;;;17.60;50.50;;;;;;20830779;28;20079;-59
2023/04/26 05:03:16;;;;;;;6.38;1.73;;;17.40;51.00;;;;;;20831243;28;20045;-59
2023/04/26 05:13:17;;;;;;;2.97;1.52;;;17.20;51.60;;;;;;20830103;28;20056;-58
2023/04/26 05:23:19;;;;;;;3.60;1.30;;;17.20;51.90;;;;;;20828469;28;20084;-59
2023/04/26 05:33:20;;;;;;;7.85;2.03;;;17.20;52.00;;;;;;20828504;28;20057;-58
2023/04/26 05:43:22;;;;;;;3.55;1.60;;;17.00;52.50;;;;;;20833932;28;20125;-57
2023/04/26 05:53:23;;;;;;;5.18;2.00;;;16.90;52.90;;;;;;20844261;28;20046;-58
2023/04/26 06:03:25;;;;;;;4.15;2.03;;;17.00;52.50;;;;;;20843786;28;20068;-58
2023/04/26 06:13:27;;;;;;;7.40;2.22;;;17.00;52.50;;;;;;20842645;28;20463;-57
2023/04/26 06:23:28;;;;;;;8.38;2.30;;;17.00;52.90;;;;;;20841765;28;20410;-57
2023/04/26 06:33:30;;;;;;;6.93;2.60;;;17.00;52.90;;;;;;20839459;28;20438;-57
2023/04/26 06:43:31;;;;;;;8.85;2.90;;;17.20;53.00;;;;;;20839071;28;20056;-57
2023/04/26 06:53:33;;;;;;;10.43;3.17;;;17.70;51.80;;;;;;20837443;28;20099;-57
2023/04/26 07:03:35;;;;;;;9.07;3.28;;;18.00;51.50;;;;;;20838777;28;20054;-58
2023/04/26 07:13:36;;;;;;;13.30;3.97;;;18.40;50.60;;;;;;20837797;28;20114;-57
2023/04/26 07:23:38;;;;;;;8.80;4.38;;;19.10;49.20;;;;;;20836353;28;20045;-56
2023/04/26 07:33:39;;;;;;;10.73;6.90;;;19.70;47.20;;;;;;20835918;28;20049;-57
2023/04/26 07:43:41;;;;;;;11.98;8.20;;;20.40;43.40;;;;;;20834931;28;20054;-56
2023/04/26 07:53:42;;;;;;;8.27;3.25;;;20.70;42.20;;;;;;20833507;28;20140;-59
2023/04/26 08:03:44;;;;;;;11.70;6.05;;;21.20;43.00;;;;;;20832505;28;20409;-68
2023/04/26 08:13:45;;;;;;;11.35;5.72;;;21.90;41.80;;;;;;20833544;28;20498;-57
2023/04/26 08:23:47;;;;;;;15.20;5.75;;;22.40;41.30;;;;;;20833024;28;20060;-64
2023/04/26 08:33:48;;;;;;;10.02;4.70;;;22.70;41.10;;;;;;20832482;28;20042;-63
2023/04/26 08:43:51;;;;;;;11.27;4.13;;;23.10;39.90;;;;;;20831154;28;20045;-63
2023/04/26 08:53:54;;;;;;;7.40;4.00;;;23.20;40.50;;;;;;20829743;28;20046;-61
2023/04/26 09:03:55;;;;;;;11.82;3.50;;;23.40;39.70;;;;;;20829741;28;20052;-64
2023/04/26 09:13:57;;;;;;;14.07;3.90;;;23.60;38.30;;;;;;20828795;28;20518;-64
2023/04/26 09:24:03;;;;;;;5.40;3.05;;;23.70;38.60;;;;;;20828863;28;20108;-63
2023/04/26 09:34:04;;;;;;;5.38;2.75;;;23.90;39.20;;;;;;20829034;28;20049;-62
2023/04/26 09:44:06;;;;;;;8.25;2.70;;;24.00;37.60;;;;;;20828885;28;20050;-58
2023/04/26 09:54:08;;;;;;;9.30;3.60;;;24.10;37.50;;;;;;20827573;28;20184;-58
2023/04/26 10:04:10;;;;;;;5.53;3.07;;;24.30;37.10;;;;;;20828407;28;20406;-59
2023/04/26 10:14:11;;;;;;;7.43;2.90;;;24.50;36.60;;;;;;20827968;28;20076;-59
2023/04/26 10:24:14;;;;;;;8.10;3.07;;;24.70;36.90;;;;;;20825888;28;20054;-58
2023/04/26 10:34:20;;;;;;;7.32;2.75;;;24.80;36.10;;;;;;20839293;28;20064;-58
2023/04/26 10:44:36;;;;;;;7.25;3.80;;;25.00;35.50;;;;;;20840625;28;20049;-58
2023/04/26 10:54:50;;;;;;;4.25;1.80;;;25.10;33.90;;;;;;20840508;28;20129;-60
2023/04/26 11:04:52;;;;;;;2.95;1.20;;;25.30;33.20;;;;;;20838488;28;20052;-59
2023/04/26 11:14:54;;;;;;;4.85;1.40;;;25.40;30.70;;;;;;20837252;28;20062;-57
2023/04/26 11:24:56;;;;;;;2.30;1.17;;;25.60;28.30;;;;;;20837953;28;20049;-59
2023/04/26 11:35:00;;;;;;;1.80;0.80;;;25.80;27.20;;;;;;20837502;28;20056;-59
2023/04/26 11:45:05;;;;;;;3.10;1.05;;;26.10;27.00;;;;;;20835697;28;20049;-59
2023/04/26 11:55:09;;;;;;;2.03;1.10;;;26.10;27.60;;;;;;20836236;28;20059;-57
2023/04/26 12:05:19;;;;;;;2.00;1.10;;;26.40;27.00;;;;;;20834301;28;20406;-58
2023/04/26 12:15:32;;;;;;;2.03;1.00;;;26.60;25.30;;;;;;20833449;28;20115;-58
2023/04/26 12:25:38;;;;;;;5.30;1.10;;;26.80;25.10;;;;;;20834006;28;20392;-58
2023/04/26 12:35:40;;;;;;;1.23;0.70;;;27.10;23.00;;;;;;20832776;28;20532;-58
2023/04/26 12:45:41;;;;;;;1.33;0.90;;;27.40;21.20;;;;;;20832124;28;20526;-58
2023/04/26 12:55:43;;;;;;;4.20;1.27;;;27.50;23.00;;;;;;20830765;28;20064;-59
2023/04/26 13:05:45;;;;;;;6.35;1.38;;;27.70;22.50;;;;;;20831281;28;20053;-58
2023/04/26 13:15:46;;;;;;;3.65;1.88;;;27.80;22.30;;;;;;20829805;28;20069;-58
2023/04/26 13:25:47;;;;;;;;;;;27.70;23.10;;;;;;20829213;28;20133;-59
2023/04/26 13:35:49;;;;;;;3.77;2.03;;;27.90;22.70;;;;;;20828312;28;20294;-58
2023/04/26 13:45:50;;;;;;;4.18;1.40;;;27.90;23.40;;;;;;20829581;28;20129;-59
2023/04/26 13:55:52;;;;;;;5.15;1.13;;;28.10;23.90;;;;;;20828435;28;20050;-58
2023/04/26 14:05:55;;;;;;;3.90;1.42;;;28.00;24.50;;;;;;20837363;28;20046;-59
2023/04/26 14:15:56;;;;;;;3.53;0.90;;;28.10;24.60;;;;;;20842876;28;20049;-58
2023/04/26 14:25:58;;;;;;;3.67;1.02;;;28.20;23.50;;;;;;20842574;28;20060;-57
2023/04/26 14:35:59;;;;;;;3.80;1.35;;;28.20;23.60;;;;;;20840730;28;20046;-58
2023/04/26 14:46:02;;;;;;;5.45;2.38;;;28.20;22.80;;;;;;20840221;28;20429;-58
2023/04/26 14:56:06;;;;;;;2.60;0.90;;;28.40;23.10;;;;;;20839396;28;20045;-57
2023/04/26 15:06:11;;;;;;;1.33;0.80;;;28.50;22.40;;;;;;20839898;28;20451;-58
2023/04/26 15:16:12;;;;;;;2.55;1.15;;;28.50;22.00;;;;;;20838643;28;20057;-58
2023/04/26 15:26:14;;;;;;;8.25;1.13;;;28.50;22.00;;;;;;20837353;28;20046;-58
2023/04/26 15:36:15;;;;;;;3.00;1.15;;;28.60;22.10;;;;;;20838225;28;20057;-60
2023/04/26 15:46:17;;;;;;;3.00;0.70;;;28.70;21.30;;;;;;20837240;28;20045;-58
2023/04/26 15:56:18;;;;;;;3.08;1.85;;;28.70;21.30;;;;;;20836149;28;20050;-59
2023/04/26 16:06:20;;;;;;;3.40;0.80;;;28.60;21.40;;;;;;20834129;28;20048;-59
2023/04/26 16:16:21;;;;;;;7.32;5.45;;;28.60;21.10;;;;;;20834123;28;20058;-58
2023/04/26 16:26:23;;;;;;;5.28;1.42;;;28.70;20.90;;;;;;20832954;28;20125;-58
2023/04/26 16:36:26;;;;;;;5.07;0.75;;;28.70;21.60;;;;;;20831483;28;20052;-58
2023/04/26 16:46:27;;;;;;;1.05;0.75;;;28.60;20.90;;;;;;20830198;28;20062;-59
2023/04/26 16:56:29;;;;;;;1.10;0.80;;;28.40;21.20;;;;;;20831071;28;20045;-58
2023/04/26 17:06:30;;;;;;;1.48;0.90;;;28.30;21.40;;;;;;20829375;28;20049;-59
2023/04/26 17:16:32;;;;;;;1.55;0.90;;;28.40;21.90;;;;;;20829408;28;20065;-58
2023/04/26 17:26:34;;;;;;;2.85;0.90;;;28.20;21.70;;;;;;20830363;28;20045;-57
2023/04/26 17:36:35;;;;;;;6.63;4.85;;;28.20;21.40;;;;;;20833296;28;20072;-58
2023/04/26 17:46:36;;;;;;;4.72;2.30;;;28.10;21.60;;;;;;20844529;28;20049;-58
2023/04/26 17:56:38;;;;;;;2.22;1.13;;;27.90;21.60;;;;;;20845037;28;20073;-59
2023/04/26 18:06:40;;;;;;;2.95;1.13;;;27.80;21.80;;;;;;20844551;28;20510;-57
2023/04/26 18:16:42;;;;;;;2.70;0.90;;;27.60;22.50;;;;;;20843072;28;20427;-57
2023/04/26 18:26:43;;;;;;;3.85;1.00;;;27.40;23.20;;;;;;20841767;28;20049;-56
2023/04/26 18:36:45;;;;;;;2.50;1.50;;;27.20;23.40;;;;;;20842230;28;20473;-59
2023/04/26 18:46:46;;;;;;;1.52;1.02;;;27.10;23.80;;;;;;20840272;28;20046;-58
2023/04/26 18:56:48;;;;;;;3.25;1.55;;;26.80;24.40;;;;;;20840463;28;20052;-58
2023/04/26 19:06:49;;;;;;;;;;;26.60;25.00;;;;;;20840439;28;20046;-57
2023/04/26 19:16:52;;;;;;;3.20;1.33;;;26.30;25.20;;;;;;20838710;28;20293;-57
2023/04/26 19:26:54;;;;;;;3.63;2.30;;;26.10;25.20;;;;;;20838257;28;20098;-59
2023/04/26 19:36:55;;;;;;;7.80;5.80;;;25.90;24.80;;;;;;20836258;28;20045;-58
2023/04/26 19:46:57;;;;;;;3.63;1.88;;;25.60;23.80;;;;;;20836031;28;20050;-59
2023/04/26 19:56:58;;;;;;;2.60;1.13;;;25.40;22.90;;;;;;20834291;28;20045;-59
2023/04/26 20:07:00;;;;;;;2.47;1.42;;;25.20;22.80;;;;;;20834224;28;20041;-59
2023/04/26 20:17:01;;;;;;;2.45;1.38;;;25.10;22.80;;;;;;20833596;28;20064;-61
2023/04/26 20:27:03;;;;;;;4.78;1.90;;;25.00;23.20;;;;;;20833568;28;20392;-57
2023/04/26 20:37:04;;;;;;;2.30;1.63;;;24.70;23.70;;;;;;20833561;28;20045;-61
2023/04/26 20:47:06;;;;;;;5.07;1.97;;;24.40;24.30;;;;;;20833074;28;20045;-61
2023/04/26 20:57:08;;;;;;;2.63;1.90;;;24.10;24.80;;;;;;20831891;28;20082;-60
2023/04/26 21:07:09;;;;;;;3.80;2.53;;;24.10;25.10;;;;;;20831159;28;20042;-59
2023/04/26 21:17:11;;;;;;;5.38;3.20;;;24.00;25.50;;;;;;20829523;28;20498;-59
2023/04/26 21:27:12;;;;;;;4.00;3.13;;;23.90;25.90;;;;;;20830510;28;20079;-60
2023/04/26 21:37:15;;;;;;;6.07;3.67;;;23.70;26.60;;;;;;20828761;28;20050;-57
2023/04/26 21:47:17;;;;;;;5.28;3.10;;;23.40;27.20;;;;;;20828421;28;20054;-57
2023/04/26 21:57:22;;;;;;;6.10;2.45;;;23.30;27.60;;;;;;20827734;28;20045;-59
2023/04/26 22:07:24;;;;;;;5.55;2.80;;;23.10;28.00;;;;;;20828604;28;20108;-58
2023/04/26 22:17:25;;;;;;;6.27;3.33;;;22.90;28.60;;;;;;20827717;28;20410;-58
2023/04/26 22:27:28;;;;;;;6.53;2.60;;;22.80;28.90;;;;;;20837283;28;20045;-57
2023/04/26 22:37:29;;;;;;;6.20;3.00;;;22.80;29.30;;;;;;20842222;28;20049;-58
2023/04/26 22:47:30;;;;;;;8.52;3.95;;;22.30;30.00;;;;;;20841882;28;20049;-57
2023/04/26 22:57:32;;;;;;;8.02;4.97;;;22.10;30.70;;;;;;20840425;28;20165;-60
2023/04/26 23:07:33;;;;;;;5.40;2.30;;;22.00;30.50;;;;;;20841789;28;20049;-58
2023/04/26 23:17:35;;;;;;;10.30;7.28;;;22.00;31.00;;;;;;20839965;28;20395;-57
2023/04/26 23:27:37;;;;;;;6.70;2.03;;;21.70;31.90;;;;;;20839358;28;20056;-58
2023/04/26 23:37:38;;;;;;;5.03;2.90;;;21.40;32.70;;;;;;20838424;28;20049;-56
2023/04/26 23:47:40;;;;;;;12.70;2.60;;;21.20;33.10;;;;;;20838124;28;20045;-58
2023/04/26 23:57:41;;;;;;;6.95;2.58;;;21.20;33.60;;;;;;20835773;28;20087;-57
